CCGS Griffon — CGDS — position and weather

sailwx.info

Track history (hours):
 
Tides and Currents Weather Stations Pressure Air Temp Water Temp Dewpoint Dewpoint Depression Visibility Wind Speed Wind Dir Waves Ship Positions

CCGS Griffon (Canada)

Light Icebreaker - Major Navaids Tender

Last reported at 2017-Nov-22 10:00 UTC. Time now 2017-Nov-22 11:07 UTC.
Position N 45°00' W 074°36'.

Length 71.32 m; beam 14.94 m; draft 4.7 m.

Type: SAR. MMSI: 316286000.

Wind from 300 at 7 knots

Air temperature 1.9 ° C
Dewpoint 1.0 ° C

Date/timePositionNaut miles runAvg speedWind from/ knotsBaromVisibWave heightAir tempDewpointWater temp
2017-Nov-22 10:00N 45°00' W 074°36'0 0.0 300 / 7 1.9 1.0
2017-Nov-22 09:00N 45°00' W 074°36'0 0.0 320 / 12 2.7 1.5
2017-Nov-22 08:00N 45°00' W 074°36'0 0.0 250 / 9 6.6 4.8
2017-Nov-22 07:00N 45°00' W 074°36'0 0.0 250 / 15 8.2 3.0
2017-Nov-22 06:00N 45°00' W 074°36'0 0.0 240 / 9 8.8 1.5
2017-Nov-22 05:00N 45°00' W 074°36'0 0.0 240 / 12 9.2 1.1
2017-Nov-22 04:00N 45°00' W 074°36'0 0.0 240 / 11 8.8 0.1 8.8
2017-Nov-22 03:00N 45°00' W 074°36'0 0.0 220 / 13 9.2-0.5 8.7
2017-Nov-22 02:00N 45°00' W 074°36'7 7.3 230 / 15 9.4-0.1
2017-Nov-22 01:00N 45°06' W 074°30'1010.4 250 / 16 9.9-1.2 8.4
2017-Nov-22 00:00N 45°12' W 074°18'18 9.0 270 / 8 9.2 1.5 8.1
2017-Nov-21 22:00N 45°18' W 073°54'0 0.0 210 / 6 8.7-2.6 7.5
2017-Nov-21 21:00N 45°18' W 073°54'7 7.3 200 / 4 9.8-1.2
2017-Nov-21 20:00N 45°24' W 073°48'8 8.4 140 / 6 8.2-0.6 6.2
2017-Nov-21 19:00N 45°24' W 073°36'7 2.4 170 / 5 7.7-0.4 5.4
2017-Nov-21 16:00N 45°30' W 073°30'0 0.0 170 / 16 5.3-0.4 5.3
2017-Nov-21 15:00N 45°30' W 073°30'4 0.6 190 / 12 4.4-0.8 5.2
2017-Nov-21 08:00N 45°30' W 073°36'0 0.0 130 / 3 -3.1-6.5
2017-Nov-21 07:00N 45°30' W 073°36'0 0.0 180 / 2 -3.7-7.0
2017-Nov-21 06:00N 45°30' W 073°36'0 0.0 190 / 4 -4.3-7.2
2017-Nov-21 04:00N 45°30' W 073°36'7 1.0 200 / 2 -4.9-7.3
2017-Nov-20 21:00N 45°36' W 073°30'7 3.7 300 / 8 -4.3-12.0
2017-Nov-20 19:00N 45°42' W 073°24'7 7.3 290 / 15 -5.6-14.1 6.5
2017-Nov-20 18:00N 45°48' W 073°18'7 7.3 300 / 21 -5.8-14.1 6.7
2017-Nov-20 17:00N 45°54' W 073°12'7 7.3 280 / 17 -6.3-13.7 6.5
2017-Nov-20 16:00N 46°00' W 073°06'0 0.0 300 / 7 -6.6-12.8
2017-Nov-20 15:00N 46°00' W 073°06'0 0.0 300 / 6 -6.6-11.7
2017-Nov-20 13:00N 46°00' W 073°06'0 0.0 240 / 8 -4.8-9.7
2017-Nov-20 12:00N 46°00' W 073°06'0 0.0 270 / 2 -5.5-10.8
2017-Nov-20 11:00N 46°00' W 073°06'0 0.0 300 / 3 -5.4-10.5
2017-Nov-20 09:00N 46°00' W 073°06'0 0.0 230 / 5 -2.8-8.0
2017-Nov-20 08:00N 46°00' W 073°06'0 0.0 280 / 2 -3.0-7.8
2017-Nov-20 07:00N 46°00' W 073°06'0 0.0 280 / 3 -3.2-7.7
2017-Nov-20 06:00N 46°00' W 073°06'0 0.0 230 / 3 -2.1-6.9
2017-Nov-20 05:00N 46°00' W 073°06'0 0.0 240 / 4 -1.6-6.5
2017-Nov-20 04:00N 46°00' W 073°06'0 0.0 290 / 10 -3.0-8.3
2017-Nov-20 03:00N 46°00' W 073°06'0 0.0 290 / 10 -2.8-7.9
2017-Nov-20 02:00N 46°00' W 073°06'0 0.0 300 / 4 -1.4-6.2
2017-Nov-20 01:00N 46°00' W 073°06'0 0.0 300 / 8 -1.6-7.0
2017-Nov-20 00:00N 46°00' W 073°06'0 0.0 270 / 2 -0.5-5.9
2017-Nov-19 23:00N 46°00' W 073°06'6 6.0 300 / 6 -0.7-5.4
2017-Nov-19 22:00N 46°06' W 073°06'1312.7 270 / 17 -0.2-4.6 7.4
2017-Nov-19 21:00N 45°54' W 073°12'1010.3 250 / 12 -0.9-4.9 7.5
2017-Nov-19 20:00N 45°48' W 073°24'4 4.2 280 / 17 -0.8-4.9 7.5
2017-Nov-19 19:00N 45°48' W 073°18'6 6.0 280 / 17 -0.5-4.0 7.6
2017-Nov-19 18:00N 45°54' W 073°18'4 4.2 280 / 17 0.1-1.7 7.5
2017-Nov-19 17:00N 45°54' W 073°12'6 2.0 290 / 15 0.3-0.5 7.5
2017-Nov-19 14:00N 46°00' W 073°12'4 4.2 340 / 5 1.6 1.3 6.7
2017-Nov-19 13:00N 46°00' W 073°06'0 0.0 030 / 7 0.9 0.6
2017-Nov-19 12:00N 46°00' W 073°06'0 0.0 030 / 7 0.9 0.7
2017-Nov-19 11:00N 46°00' W 073°06'0 0.0 040 / 9 0.6 0.5
2017-Nov-19 10:00N 46°00' W 073°06'0 0.0 030 / 8 1.3 1.1
2017-Nov-19 09:00N 46°00' W 073°06'0 0.0 060 / 10 2.3 2.0
2017-Nov-19 08:00N 46°00' W 073°06'0 0.0 070 / 10 2.0 1.6
2017-Nov-19 07:00N 46°00' W 073°06'0 0.0 080 / 8 1.4 1.0
2017-Nov-19 06:00N 46°00' W 073°06'0 0.0 090 / 10 1.7 0.7
2017-Nov-19 05:00N 46°00' W 073°06'0 0.0 090 / 8 1.3-0.5
2017-Nov-19 04:00N 46°00' W 073°06'0 0.0 090 / 8 1.4-1.8
2017-Nov-19 03:00N 46°00' W 073°06'0 0.0 080 / 11 1.5-3.0
2017-Nov-19 02:00N 46°00' W 073°06'0 0.0 050 / 8 0.4-2.9
2017-Nov-19 01:00N 46°00' W 073°06'0 0.0 050 / 10 -0.7-4.4
2017-Nov-19 00:00N 46°00' W 073°06'0 0.0 030 / 9 -1.3-5.2
2017-Nov-18 23:00N 46°00' W 073°06'0 0.0 050 / 10 -1.4-4.8
2017-Nov-18 21:00N 46°00' W 073°06'0 0.0 070 / 11 -1.0-5.1
2017-Nov-18 20:00N 46°00' W 073°06'0 0.0 080 / 16 -1.7-5.3
2017-Nov-18 18:00N 46°00' W 073°06'0 0.0 060 / 10 -2.2-5.5
2017-Nov-18 16:00N 46°00' W 073°06'0 0.0 050 / 7 -3.0-7.1
2017-Nov-18 15:00N 46°00' W 073°06'0 0.0 090 / 8 -3.6-7.5
2017-Nov-18 14:00N 46°00' W 073°06'0 0.0 090 / 7 -3.8-7.3
2017-Nov-18 13:00N 46°00' W 073°06'0 0.0 110 / 6 -5.1-8.6
2017-Nov-18 12:00N 46°00' W 073°06'0 0.0 120 / 6 -5.0-8.3
2017-Nov-18 11:00N 46°00' W 073°06'0 0.0 130 / 6 -4.7-8.1
2017-Nov-18 10:00N 46°00' W 073°06'0 0.0 150 / 4 -4.6-8.0
2017-Nov-18 09:00N 46°00' W 073°06'0 0.0 100 / 1 -3.8-8.3
2017-Nov-18 08:00N 46°00' W 073°06'0 0.0 030 / 4 -4.1-8.6
2017-Nov-18 07:00N 46°00' W 073°06'0 0.0 020 / 5 -4.1-8.4
2017-Nov-18 06:00N 46°00' W 073°06'0 0.0 350 / 4 -4.0-8.6
2017-Nov-18 05:00N 46°00' W 073°06'0 0.0 360 / 3 -3.7-7.9
2017-Nov-18 04:00N 46°00' W 073°06'0 0.0 320 / 2 -3.3-8.7
2017-Nov-18 03:00N 46°00' W 073°06'0 0.0 300 / 3 -3.0-8.3
2017-Nov-18 02:00N 46°00' W 073°06'0 0.0 290 / 3 -2.5-8.5
2017-Nov-18 01:00N 46°00' W 073°06'0 0.0 300 / 4 -2.3-8.6 6.3
2017-Nov-18 00:00N 46°00' W 073°06'6 6.0 310 / 4 -1.9-8.4 5.8
2017-Nov-17 23:00N 46°06' W 073°06'8 8.3 300 / 11 -1.2-7.9 8.2
2017-Nov-17 22:00N 46°06' W 072°54'6 6.0 300 / 12 -0.7-7.5 8.3
2017-Nov-17 21:00N 46°12' W 072°54'24 3.4 300 / 13 -0.6-7.6 8.3
2017-Nov-17 14:00N 46°24' W 072°24'7 7.3 340 / 20 -2.1-7.3 7.4
2017-Nov-17 13:00N 46°18' W 072°30'0 0.0 310 / 8 -1.1-6.0
2017-Nov-17 12:00N 46°18' W 072°30'0 0.0 330 / 7 -0.2-5.6
2017-Nov-17 11:00N 46°18' W 072°30'0 0.0 330 / 7 -0.0-5.0
2017-Nov-17 10:00N 46°18' W 072°30'0 0.0 330 / 5 0.8-4.2
2017-Nov-17 09:00N 46°18' W 072°30'0 0.0 340 / 6 1.6-2.7
2017-Nov-17 08:00N 46°18' W 072°30'0 0.0 340 / 6 2.5-1.8
2017-Nov-17 07:00N 46°18' W 072°30'0 0.0 350 / 4 3.3-0.2
2017-Nov-17 06:00N 46°18' W 072°30'0 0.0 340 / 5 3.8 1.2
2017-Nov-17 05:00N 46°18' W 072°30'0 0.0 340 / 4 4.4 3.8
2017-Nov-17 04:00N 46°18' W 072°30'0 0.0 300 / 4 5.3 4.7
2017-Nov-17 03:00N 46°18' W 072°30'0 0.0 260 / 3 5.3 4.7
2017-Nov-17 02:00N 46°18' W 072°30'0 0.0 200 / 3 5.1 4.4 6.4
2017-Nov-17 01:00N 46°18' W 072°30'0 0.0 180 / 5 5.2 4.3 6.6
2017-Nov-17 00:00N 46°18' W 072°30'8 8.3 200 / 7 6.1 3.8 6.6
2017-Nov-16 23:00N 46°18' W 072°42'1010.2 210 / 16 7.0 4.1 8.2
2017-Nov-16 22:00N 46°12' W 072°54'1514.6 200 / 15 7.1 3.9 8.5
2017-Nov-16 21:00N 46°00' W 073°06'15 2.9 210 / 4 8.8 3.6
2017-Nov-16 16:00N 46°12' W 072°54'4 4.2 170 / 8 5.5 3.0 8.1
2017-Nov-16 15:00N 46°12' W 072°48'1010.2 100 / 7 4.0 2.2 7.4
2017-Nov-16 14:00N 46°18' W 072°36'4 4.1 110 / 4 3.4 1.4 7.3
2017-Nov-16 13:00N 46°18' W 072°30'0 0.0 070 / 8 2.7-0.0
2017-Nov-16 12:00N 46°18' W 072°30'0 0.0 100 / 5 2.9-1.0
2017-Nov-16 11:00N 46°18' W 072°30'0 0.0 120 / 5 3.3-2.3
2017-Nov-16 10:00N 46°18' W 072°30'0 0.0 110 / 6 3.0-3.1
2017-Nov-16 09:00N 46°18' W 072°30'0 0.0 120 / 6 2.9-3.3
2017-Nov-16 08:00N 46°18' W 072°30'0 0.0 120 / 8 2.7-3.6
2017-Nov-16 07:00N 46°18' W 072°30'0 0.0 120 / 7 2.6-3.4
2017-Nov-16 06:00N 46°18' W 072°30'0 0.0 140 / 8 2.4-3.2
2017-Nov-16 05:00N 46°18' W 072°30'0 0.0 140 / 8 2.1-3.4
2017-Nov-16 04:00N 46°18' W 072°30'0 0.0 120 / 6 1.6-4.7
2017-Nov-16 03:00N 46°18' W 072°30'0 0.0 120 / 7 1.7-5.3
2017-Nov-16 02:00N 46°18' W 072°30'0 0.0 100 / 3 1.0-5.1
2017-Nov-16 01:00N 46°18' W 072°30'0 0.0 070 / 7 1.3-4.7
2017-Nov-16 00:00N 46°18' W 072°30'31 3.8 060 / 7 1.9-3.3
2017-Nov-15 16:00N 46°00' W 073°06'0 0.0 040 / 2 1.4-1.9
2017-Nov-15 15:00N 46°00' W 073°06'0 0.0 080 / 3 0.8-2.1
2017-Nov-15 14:00N 46°00' W 073°06'0 0.0 030 / 2 0.1-1.8
2017-Nov-15 13:00N 46°00' W 073°06'0 0.0 -0.4-2.7
2017-Nov-15 12:00N 46°00' W 073°06'0 0.0 120 / 3 -1.4-3.5
2017-Nov-15 11:00N 46°00' W 073°06'0 0.0 030 / 1 -1.1-2.7
2017-Nov-15 10:00N 46°00' W 073°06'0 0.0 040 / 3 -0.6-2.2
2017-Nov-15 09:00N 46°00' W 073°06'0 0.0 030 / 4 -0.7-2.4
2017-Nov-15 08:00N 46°00' W 073°06'0 0.0 030 / 4 -0.6-2.6
2017-Nov-15 07:00N 46°00' W 073°06'0 0.0 020 / 5 -0.0-2.0
2017-Nov-15 06:00N 46°00' W 073°06'0 0.0 030 / 5 0.6-1.7
2017-Nov-15 05:00N 46°00' W 073°06'0 0.0 040 / 4 1.0-1.5
2017-Nov-15 04:00N 46°00' W 073°06'0 0.0 020 / 3 1.3-1.6
2017-Nov-15 03:00N 46°00' W 073°06'0 0.0 090 / 4 1.9-2.8
2017-Nov-15 02:00N 46°00' W 073°06'0 0.0 050 / 4 2.0-1.9
2017-Nov-15 01:00N 46°00' W 073°06'0 0.0 100 / 4 2.1-2.8
2017-Nov-15 00:00N 46°00' W 073°06'0 0.0 080 / 3 2.1-1.5
2017-Nov-14 23:00N 46°00' W 073°06'0 0.0 040 / 5 2.0-1.8
2017-Nov-14 22:00N 46°00' W 073°06'0 0.0 030 / 5 2.6-2.5
2017-Nov-14 21:00N 46°00' W 073°06'0 0.0 030 / 4 2.7-1.9
2017-Nov-14 20:00N 46°00' W 073°06'6 6.0 050 / 5 2.7-2.5
2017-Nov-14 19:00N 46°06' W 073°06'4 4.2 060 / 4 5.4-1.3 7.7
2017-Nov-14 18:00N 46°06' W 073°00'4 4.2 360 / 6 2.9-1.4 8.0
2017-Nov-14 17:00N 46°06' W 072°54'0 0.0 070 / 5 1.6-1.9 7.9
2017-Nov-14 16:00N 46°06' W 072°54'1010.3 060 / 6 1.6-2.3 7.7
2017-Nov-14 15:00N 46°00' W 073°06'0 0.0 050 / 7 1.2-3.0
2017-Nov-14 14:00N 46°00' W 073°06'0 0.0 030 / 6 1.0-3.1
2017-Nov-14 13:00N 46°00' W 073°06'0 0.0 030 / 6 0.9-3.5
2017-Nov-14 12:00N 46°00' W 073°06'0 0.0 020 / 4 0.9-3.6
2017-Nov-14 11:00N 46°00' W 073°06'0 0.0 340 / 3 0.5-4.0
2017-Nov-14 10:00N 46°00' W 073°06'0 0.0 010 / 3 0.3-3.7
2017-Nov-14 09:00N 46°00' W 073°06'0 0.0 010 / 2 0.3-3.7
2017-Nov-14 08:00N 46°00' W 073°06'0 0.0 030 / 3 0.3-3.6
2017-Nov-14 07:00N 46°00' W 073°06'0 0.0 340 / 3 -0.0-4.1
2017-Nov-14 06:00N 46°00' W 073°06'0 0.0 360 / 2 0.6-4.3
2017-Nov-14 05:00N 46°00' W 073°06'0 0.0 010 / 2 0.4-4.6
2017-Nov-14 04:00N 46°00' W 073°06'0 0.0 010 / 2 0.6-4.6
2017-Nov-14 03:00N 46°00' W 073°06'0 0.0 020 / 3 0.7-5.8
2017-Nov-14 02:00N 46°00' W 073°06'0 0.0 040 / 3 0.8-5.6
2017-Nov-14 01:00N 46°00' W 073°06'6 6.0 030 / 4 0.4-6.0 7.3
2017-Nov-14 00:00N 46°06' W 073°06'8 8.3 360 / 6 0.2-4.4 7.9
2017-Nov-13 23:00N 46°06' W 072°54'7 7.3 320 / 3 0.5-4.3 7.8
2017-Nov-13 22:00N 46°12' W 072°48'1010.2 130 / 1 0.6-4.3 7.5
2017-Nov-13 21:00N 46°18' W 072°36'14 6.9 030 / 7 0.9-4.8 7.6
2017-Nov-13 19:00N 46°24' W 072°18'7 7.3 070 / 1 -0.5-3.9 7.2
2017-Nov-13 18:00N 46°30' W 072°12'0 0.0 250 / 21030.8 -0.6-4.4
2017-Nov-13 16:00N 46°30' W 072°12'1010.2 040 / 8 -2.1-4.4 7.2
2017-Nov-13 15:00N 46°24' W 072°24'7 7.3 060 / 6 -3.6-5.4 6.9
2017-Nov-13 14:00N 46°18' W 072°30'0 0.0 010 / 2 -3.2-5.3
2017-Nov-13 13:00N 46°18' W 072°30'0 0.0 010 / 2 -3.8-5.7
2017-Nov-13 12:00N 46°18' W 072°30'0 0.0 010 / 2 -5.1-6.5
2017-Nov-13 11:00N 46°18' W 072°30'0 0.0 360 / 2 -5.3-6.2
2017-Nov-13 10:00N 46°18' W 072°30'0 0.0 350 / 2 -5.1-5.9
2017-Nov-13 09:00N 46°18' W 072°30'0 0.0 340 / 2 -4.7-5.2
2017-Nov-13 08:00N 46°18' W 072°30'0 0.0 350 / 3 -4.8-5.5
2017-Nov-13 07:00N 46°18' W 072°30'0 0.0 360 / 2 -4.5-6.1
2017-Nov-13 06:00N 46°18' W 072°30'0 0.0 350 / 2 -4.0-6.0
2017-Nov-13 05:00N 46°18' W 072°30'0 0.0 360 / 2 -3.8-5.9
2017-Nov-13 04:00N 46°18' W 072°30'0 0.0 350 / 1 -3.0-5.2
2017-Nov-13 03:00N 46°18' W 072°30'0 0.0 350 / 1 -2.5-4.9
2017-Nov-13 02:00N 46°18' W 072°30'0 0.0 360 / 1 -2.0-4.8
2017-Nov-13 01:00N 46°18' W 072°30'0 0.0 360 / 1 -1.6-4.4
2017-Nov-13 00:00N 46°18' W 072°30'0 0.0 010 / 2 -1.2-4.0
2017-Nov-12 23:00N 46°18' W 072°30'0 0.0 350 / 1 -0.7-4.1
2017-Nov-12 22:00N 46°18' W 072°30'0 0.0 330 / 1 -0.5-4.3
2017-Nov-12 21:00N 46°18' W 072°30'0 0.0 130 / 2 -0.6-4.8
2017-Nov-12 20:00N 46°18' W 072°30'0 0.0 160 / 3 -0.7-4.4
2017-Nov-12 19:00N 46°18' W 072°30'0 0.0 100 / 4 -1.5-4.6
2017-Nov-12 18:00N 46°18' W 072°30'0 0.0 090 / 3 -2.8-4.9
2017-Nov-12 17:00N 46°18' W 072°30'0 0.0 050 / 1 -2.8-4.8
2017-Nov-12 16:00N 46°18' W 072°30'0 0.0 240 / 2 -1.8-8.8
2017-Nov-12 15:00N 46°18' W 072°30'0 0.0 -2.2-8.1
2017-Nov-12 14:00N 46°18' W 072°30'0 0.0 170 / 2 -3.1-8.1
2017-Nov-12 13:00N 46°18' W 072°30'0 0.0 160 / 2 -3.1-8.7
2017-Nov-12 12:00N 46°18' W 072°30'0 0.0 110 / 2 -3.6-8.3
2017-Nov-12 11:00N 46°18' W 072°30'0 0.0 170 / 2 -3.8-8.1
2017-Nov-12 10:00N 46°18' W 072°30'   150 / 4 -3.9-8.3
Track history (hours):
 
Tides and Currents Weather Stations Pressure Air Temp Water Temp Dewpoint Dewpoint Depression Visibility Wind Speed Wind Dir Waves Ship Positions

CCGS Griffon (Canada)

Light Icebreaker - Major Navaids Tender

Last reported at 2017-Nov-22 10:00 UTC. Time now 2017-Nov-22 11:07 UTC.
Position N 45°00' W 074°36'.

Length 71.32 m; beam 14.94 m; draft 4.7 m.

Type: SAR. MMSI: 316286000.

Wind from 300 at 7 knots

Air temperature 1.9 ° C
Dewpoint 1.0 ° C

Date/timePositionNaut miles runAvg speedWind from/ knotsBaromVisibWave heightAir tempDewpointWater temp
2017-Nov-22 10:00N 45°00' W 074°36'0 0.0 300 / 7 1.9 1.0
2017-Nov-22 09:00N 45°00' W 074°36'0 0.0 320 / 12 2.7 1.5
2017-Nov-22 08:00N 45°00' W 074°36'0 0.0 250 / 9 6.6 4.8
2017-Nov-22 07:00N 45°00' W 074°36'0 0.0 250 / 15 8.2 3.0
2017-Nov-22 06:00N 45°00' W 074°36'0 0.0 240 / 9 8.8 1.5
2017-Nov-22 05:00N 45°00' W 074°36'0 0.0 240 / 12 9.2 1.1
2017-Nov-22 04:00N 45°00' W 074°36'0 0.0 240 / 11 8.8 0.1 8.8
2017-Nov-22 03:00N 45°00' W 074°36'0 0.0 220 / 13 9.2-0.5 8.7
2017-Nov-22 02:00N 45°00' W 074°36'7 7.3 230 / 15 9.4-0.1
2017-Nov-22 01:00N 45°06' W 074°30'1010.4 250 / 16 9.9-1.2 8.4
2017-Nov-22 00:00N 45°12' W 074°18'18 9.0 270 / 8 9.2 1.5 8.1
2017-Nov-21 22:00N 45°18' W 073°54'0 0.0 210 / 6 8.7-2.6 7.5
2017-Nov-21 21:00N 45°18' W 073°54'7 7.3 200 / 4 9.8-1.2
2017-Nov-21 20:00N 45°24' W 073°48'8 8.4 140 / 6 8.2-0.6 6.2
2017-Nov-21 19:00N 45°24' W 073°36'7 2.4 170 / 5 7.7-0.4 5.4
2017-Nov-21 16:00N 45°30' W 073°30'0 0.0 170 / 16 5.3-0.4 5.3
2017-Nov-21 15:00N 45°30' W 073°30'4 0.6 190 / 12 4.4-0.8 5.2
2017-Nov-21 08:00N 45°30' W 073°36'0 0.0 130 / 3 -3.1-6.5
2017-Nov-21 07:00N 45°30' W 073°36'0 0.0 180 / 2 -3.7-7.0
2017-Nov-21 06:00N 45°30' W 073°36'0 0.0 190 / 4 -4.3-7.2
2017-Nov-21 04:00N 45°30' W 073°36'7 1.0 200 / 2 -4.9-7.3
2017-Nov-20 21:00N 45°36' W 073°30'7 3.7 300 / 8 -4.3-12.0
2017-Nov-20 19:00N 45°42' W 073°24'7 7.3 290 / 15 -5.6-14.1 6.5
2017-Nov-20 18:00N 45°48' W 073°18'7 7.3 300 / 21 -5.8-14.1 6.7
2017-Nov-20 17:00N 45°54' W 073°12'7 7.3 280 / 17 -6.3-13.7 6.5
2017-Nov-20 16:00N 46°00' W 073°06'0 0.0 300 / 7 -6.6-12.8
2017-Nov-20 15:00N 46°00' W 073°06'0 0.0 300 / 6 -6.6-11.7
2017-Nov-20 13:00N 46°00' W 073°06'0 0.0 240 / 8 -4.8-9.7
2017-Nov-20 12:00N 46°00' W 073°06'0 0.0 270 / 2 -5.5-10.8
2017-Nov-20 11:00N 46°00' W 073°06'0 0.0 300 / 3 -5.4-10.5
2017-Nov-20 09:00N 46°00' W 073°06'0 0.0 230 / 5 -2.8-8.0
2017-Nov-20 08:00N 46°00' W 073°06'0 0.0 280 / 2 -3.0-7.8
2017-Nov-20 07:00N 46°00' W 073°06'0 0.0 280 / 3 -3.2-7.7
2017-Nov-20 06:00N 46°00' W 073°06'0 0.0 230 / 3 -2.1-6.9
2017-Nov-20 05:00N 46°00' W 073°06'0 0.0 240 / 4 -1.6-6.5
2017-Nov-20 04:00N 46°00' W 073°06'0 0.0 290 / 10 -3.0-8.3
2017-Nov-20 03:00N 46°00' W 073°06'0 0.0 290 / 10 -2.8-7.9
2017-Nov-20 02:00N 46°00' W 073°06'0 0.0 300 / 4 -1.4-6.2
2017-Nov-20 01:00N 46°00' W 073°06'0 0.0 300 / 8 -1.6-7.0
2017-Nov-20 00:00N 46°00' W 073°06'0 0.0 270 / 2 -0.5-5.9
2017-Nov-19 23:00N 46°00' W 073°06'6 6.0 300 / 6 -0.7-5.4
2017-Nov-19 22:00N 46°06' W 073°06'1312.7 270 / 17 -0.2-4.6 7.4
2017-Nov-19 21:00N 45°54' W 073°12'1010.3 250 / 12 -0.9-4.9 7.5
2017-Nov-19 20:00N 45°48' W 073°24'4 4.2 280 / 17 -0.8-4.9 7.5
2017-Nov-19 19:00N 45°48' W 073°18'6 6.0 280 / 17 -0.5-4.0 7.6
2017-Nov-19 18:00N 45°54' W 073°18'4 4.2 280 / 17 0.1-1.7 7.5
2017-Nov-19 17:00N 45°54' W 073°12'6 2.0 290 / 15 0.3-0.5 7.5
2017-Nov-19 14:00N 46°00' W 073°12'4 4.2 340 / 5 1.6 1.3 6.7
2017-Nov-19 13:00N 46°00' W 073°06'0 0.0 030 / 7 0.9 0.6
2017-Nov-19 12:00N 46°00' W 073°06'0 0.0 030 / 7 0.9 0.7
2017-Nov-19 11:00N 46°00' W 073°06'0 0.0 040 / 9 0.6 0.5
2017-Nov-19 10:00N 46°00' W 073°06'0 0.0 030 / 8 1.3 1.1
2017-Nov-19 09:00N 46°00' W 073°06'0 0.0 060 / 10 2.3 2.0
2017-Nov-19 08:00N 46°00' W 073°06'0 0.0 070 / 10 2.0 1.6
2017-Nov-19 07:00N 46°00' W 073°06'0 0.0 080 / 8 1.4 1.0
2017-Nov-19 06:00N 46°00' W 073°06'0 0.0 090 / 10 1.7 0.7
2017-Nov-19 05:00N 46°00' W 073°06'0 0.0 090 / 8 1.3-0.5
2017-Nov-19 04:00N 46°00' W 073°06'0 0.0 090 / 8 1.4-1.8
2017-Nov-19 03:00N 46°00' W 073°06'0 0.0 080 / 11 1.5-3.0
2017-Nov-19 02:00N 46°00' W 073°06'0 0.0 050 / 8 0.4-2.9
2017-Nov-19 01:00N 46°00' W 073°06'0 0.0 050 / 10 -0.7-4.4
2017-Nov-19 00:00N 46°00' W 073°06'0 0.0 030 / 9 -1.3-5.2
2017-Nov-18 23:00N 46°00' W 073°06'0 0.0 050 / 10 -1.4-4.8
2017-Nov-18 21:00N 46°00' W 073°06'0 0.0 070 / 11 -1.0-5.1
2017-Nov-18 20:00N 46°00' W 073°06'0 0.0 080 / 16 -1.7-5.3
2017-Nov-18 18:00N 46°00' W 073°06'0 0.0 060 / 10 -2.2-5.5
2017-Nov-18 16:00N 46°00' W 073°06'0 0.0 050 / 7 -3.0-7.1
2017-Nov-18 15:00N 46°00' W 073°06'0 0.0 090 / 8 -3.6-7.5
2017-Nov-18 14:00N 46°00' W 073°06'0 0.0 090 / 7 -3.8-7.3
2017-Nov-18 13:00N 46°00' W 073°06'0 0.0 110 / 6 -5.1-8.6
2017-Nov-18 12:00N 46°00' W 073°06'0 0.0 120 / 6 -5.0-8.3
2017-Nov-18 11:00N 46°00' W 073°06'0 0.0 130 / 6 -4.7-8.1
2017-Nov-18 10:00N 46°00' W 073°06'0 0.0 150 / 4 -4.6-8.0
2017-Nov-18 09:00N 46°00' W 073°06'0 0.0 100 / 1 -3.8-8.3
2017-Nov-18 08:00N 46°00' W 073°06'0 0.0 030 / 4 -4.1-8.6
2017-Nov-18 07:00N 46°00' W 073°06'0 0.0 020 / 5 -4.1-8.4
2017-Nov-18 06:00N 46°00' W 073°06'0 0.0 350 / 4 -4.0-8.6
2017-Nov-18 05:00N 46°00' W 073°06'0 0.0 360 / 3 -3.7-7.9
2017-Nov-18 04:00N 46°00' W 073°06'0 0.0 320 / 2 -3.3-8.7
2017-Nov-18 03:00N 46°00' W 073°06'0 0.0 300 / 3 -3.0-8.3
2017-Nov-18 02:00N 46°00' W 073°06'0 0.0 290 / 3 -2.5-8.5
2017-Nov-18 01:00N 46°00' W 073°06'0 0.0 300 / 4 -2.3-8.6 6.3
2017-Nov-18 00:00N 46°00' W 073°06'6 6.0 310 / 4 -1.9-8.4 5.8
2017-Nov-17 23:00N 46°06' W 073°06'8 8.3 300 / 11 -1.2-7.9 8.2
2017-Nov-17 22:00N 46°06' W 072°54'6 6.0 300 / 12 -0.7-7.5 8.3
2017-Nov-17 21:00N 46°12' W 072°54'24 3.4 300 / 13 -0.6-7.6 8.3
2017-Nov-17 14:00N 46°24' W 072°24'7 7.3 340 / 20 -2.1-7.3 7.4
2017-Nov-17 13:00N 46°18' W 072°30'0 0.0 310 / 8 -1.1-6.0
2017-Nov-17 12:00N 46°18' W 072°30'0 0.0 330 / 7 -0.2-5.6
2017-Nov-17 11:00N 46°18' W 072°30'0 0.0 330 / 7 -0.0-5.0
2017-Nov-17 10:00N 46°18' W 072°30'0 0.0 330 / 5 0.8-4.2
2017-Nov-17 09:00N 46°18' W 072°30'0 0.0 340 / 6 1.6-2.7
2017-Nov-17 08:00N 46°18' W 072°30'0 0.0 340 / 6 2.5-1.8
2017-Nov-17 07:00N 46°18' W 072°30'0 0.0 350 / 4 3.3-0.2
2017-Nov-17 06:00N 46°18' W 072°30'0 0.0 340 / 5 3.8 1.2
2017-Nov-17 05:00N 46°18' W 072°30'0 0.0 340 / 4 4.4 3.8
2017-Nov-17 04:00N 46°18' W 072°30'0 0.0 300 / 4 5.3 4.7
2017-Nov-17 03:00N 46°18' W 072°30'0 0.0 260 / 3 5.3 4.7
2017-Nov-17 02:00N 46°18' W 072°30'0 0.0 200 / 3 5.1 4.4 6.4
2017-Nov-17 01:00N 46°18' W 072°30'0 0.0 180 / 5 5.2 4.3 6.6
2017-Nov-17 00:00N 46°18' W 072°30'8 8.3 200 / 7 6.1 3.8 6.6
2017-Nov-16 23:00N 46°18' W 072°42'1010.2 210 / 16 7.0 4.1 8.2
2017-Nov-16 22:00N 46°12' W 072°54'1514.6 200 / 15 7.1 3.9 8.5
2017-Nov-16 21:00N 46°00' W 073°06'15 2.9 210 / 4 8.8 3.6
2017-Nov-16 16:00N 46°12' W 072°54'4 4.2 170 / 8 5.5 3.0 8.1
2017-Nov-16 15:00N 46°12' W 072°48'1010.2 100 / 7 4.0 2.2 7.4
2017-Nov-16 14:00N 46°18' W 072°36'4 4.1 110 / 4 3.4 1.4 7.3
2017-Nov-16 13:00N 46°18' W 072°30'0 0.0 070 / 8 2.7-0.0
2017-Nov-16 12:00N 46°18' W 072°30'0 0.0 100 / 5 2.9-1.0
2017-Nov-16 11:00N 46°18' W 072°30'0 0.0 120 / 5 3.3-2.3
2017-Nov-16 10:00N 46°18' W 072°30'0 0.0 110 / 6 3.0-3.1
2017-Nov-16 09:00N 46°18' W 072°30'0 0.0 120 / 6 2.9-3.3
2017-Nov-16 08:00N 46°18' W 072°30'0 0.0 120 / 8 2.7-3.6
2017-Nov-16 07:00N 46°18' W 072°30'0 0.0 120 / 7 2.6-3.4
2017-Nov-16 06:00N 46°18' W 072°30'0 0.0 140 / 8 2.4-3.2
2017-Nov-16 05:00N 46°18' W 072°30'0 0.0 140 / 8 2.1-3.4
2017-Nov-16 04:00N 46°18' W 072°30'0 0.0 120 / 6 1.6-4.7
2017-Nov-16 03:00N 46°18' W 072°30'0 0.0 120 / 7 1.7-5.3
2017-Nov-16 02:00N 46°18' W 072°30'0 0.0 100 / 3 1.0-5.1
2017-Nov-16 01:00N 46°18' W 072°30'0 0.0 070 / 7 1.3-4.7
2017-Nov-16 00:00N 46°18' W 072°30'31 3.8 060 / 7 1.9-3.3
2017-Nov-15 16:00N 46°00' W 073°06'0 0.0 040 / 2 1.4-1.9
2017-Nov-15 15:00N 46°00' W 073°06'0 0.0 080 / 3 0.8-2.1
2017-Nov-15 14:00N 46°00' W 073°06'0 0.0 030 / 2 0.1-1.8
2017-Nov-15 13:00N 46°00' W 073°06'0 0.0 -0.4-2.7
2017-Nov-15 12:00N 46°00' W 073°06'0 0.0 120 / 3 -1.4-3.5
2017-Nov-15 11:00N 46°00' W 073°06'0 0.0 030 / 1 -1.1-2.7
2017-Nov-15 10:00N 46°00' W 073°06'0 0.0 040 / 3 -0.6-2.2
2017-Nov-15 09:00N 46°00' W 073°06'0 0.0 030 / 4 -0.7-2.4
2017-Nov-15 08:00N 46°00' W 073°06'0 0.0 030 / 4 -0.6-2.6
2017-Nov-15 07:00N 46°00' W 073°06'0 0.0 020 / 5 -0.0-2.0
2017-Nov-15 06:00N 46°00' W 073°06'0 0.0 030 / 5 0.6-1.7
2017-Nov-15 05:00N 46°00' W 073°06'0 0.0 040 / 4 1.0-1.5
2017-Nov-15 04:00N 46°00' W 073°06'0 0.0 020 / 3 1.3-1.6
2017-Nov-15 03:00N 46°00' W 073°06'0 0.0 090 / 4 1.9-2.8
2017-Nov-15 02:00N 46°00' W 073°06'0 0.0 050 / 4 2.0-1.9
2017-Nov-15 01:00N 46°00' W 073°06'0 0.0 100 / 4 2.1-2.8
2017-Nov-15 00:00N 46°00' W 073°06'0 0.0 080 / 3 2.1-1.5
2017-Nov-14 23:00N 46°00' W 073°06'0 0.0 040 / 5 2.0-1.8
2017-Nov-14 22:00N 46°00' W 073°06'0 0.0 030 / 5 2.6-2.5
2017-Nov-14 21:00N 46°00' W 073°06'0 0.0 030 / 4 2.7-1.9
2017-Nov-14 20:00N 46°00' W 073°06'6 6.0 050 / 5 2.7-2.5
2017-Nov-14 19:00N 46°06' W 073°06'4 4.2 060 / 4 5.4-1.3 7.7
2017-Nov-14 18:00N 46°06' W 073°00'4 4.2 360 / 6 2.9-1.4 8.0
2017-Nov-14 17:00N 46°06' W 072°54'0 0.0 070 / 5 1.6-1.9 7.9
2017-Nov-14 16:00N 46°06' W 072°54'1010.3 060 / 6 1.6-2.3 7.7
2017-Nov-14 15:00N 46°00' W 073°06'0 0.0 050 / 7 1.2-3.0
2017-Nov-14 14:00N 46°00' W 073°06'0 0.0 030 / 6 1.0-3.1
2017-Nov-14 13:00N 46°00' W 073°06'0 0.0 030 / 6 0.9-3.5
2017-Nov-14 12:00N 46°00' W 073°06'0 0.0 020 / 4 0.9-3.6
2017-Nov-14 11:00N 46°00' W 073°06'0 0.0 340 / 3 0.5-4.0
2017-Nov-14 10:00N 46°00' W 073°06'0 0.0 010 / 3 0.3-3.7
2017-Nov-14 09:00N 46°00' W 073°06'0 0.0 010 / 2 0.3-3.7
2017-Nov-14 08:00N 46°00' W 073°06'0 0.0 030 / 3 0.3-3.6
2017-Nov-14 07:00N 46°00' W 073°06'0 0.0 340 / 3 -0.0-4.1
2017-Nov-14 06:00N 46°00' W 073°06'0 0.0 360 / 2 0.6-4.3
2017-Nov-14 05:00N 46°00' W 073°06'0 0.0 010 / 2 0.4-4.6
2017-Nov-14 04:00N 46°00' W 073°06'0 0.0 010 / 2 0.6-4.6
2017-Nov-14 03:00N 46°00' W 073°06'0 0.0 020 / 3 0.7-5.8
2017-Nov-14 02:00N 46°00' W 073°06'0 0.0 040 / 3 0.8-5.6
2017-Nov-14 01:00N 46°00' W 073°06'6 6.0 030 / 4 0.4-6.0 7.3
2017-Nov-14 00:00N 46°06' W 073°06'8 8.3 360 / 6 0.2-4.4 7.9
2017-Nov-13 23:00N 46°06' W 072°54'7 7.3 320 / 3 0.5-4.3 7.8
2017-Nov-13 22:00N 46°12' W 072°48'1010.2 130 / 1 0.6-4.3 7.5
2017-Nov-13 21:00N 46°18' W 072°36'14 6.9 030 / 7 0.9-4.8 7.6
2017-Nov-13 19:00N 46°24' W 072°18'7 7.3 070 / 1 -0.5-3.9 7.2
2017-Nov-13 18:00N 46°30' W 072°12'0 0.0 250 / 21030.8 -0.6-4.4
2017-Nov-13 16:00N 46°30' W 072°12'1010.2 040 / 8 -2.1-4.4 7.2
2017-Nov-13 15:00N 46°24' W 072°24'7 7.3 060 / 6 -3.6-5.4 6.9
2017-Nov-13 14:00N 46°18' W 072°30'0 0.0 010 / 2 -3.2-5.3
2017-Nov-13 13:00N 46°18' W 072°30'0 0.0 010 / 2 -3.8-5.7
2017-Nov-13 12:00N 46°18' W 072°30'0 0.0 010 / 2 -5.1-6.5
2017-Nov-13 11:00N 46°18' W 072°30'0 0.0 360 / 2 -5.3-6.2
2017-Nov-13 10:00N 46°18' W 072°30'0 0.0 350 / 2 -5.1-5.9
2017-Nov-13 09:00N 46°18' W 072°30'0 0.0 340 / 2 -4.7-5.2
2017-Nov-13 08:00N 46°18' W 072°30'0 0.0 350 / 3 -4.8-5.5
2017-Nov-13 07:00N 46°18' W 072°30'0 0.0 360 / 2 -4.5-6.1
2017-Nov-13 06:00N 46°18' W 072°30'0 0.0 350 / 2 -4.0-6.0
2017-Nov-13 05:00N 46°18' W 072°30'0 0.0 360 / 2 -3.8-5.9
2017-Nov-13 04:00N 46°18' W 072°30'0 0.0 350 / 1 -3.0-5.2
2017-Nov-13 03:00N 46°18' W 072°30'0 0.0 350 / 1 -2.5-4.9
2017-Nov-13 02:00N 46°18' W 072°30'0 0.0 360 / 1 -2.0-4.8
2017-Nov-13 01:00N 46°18' W 072°30'0 0.0 360 / 1 -1.6-4.4
2017-Nov-13 00:00N 46°18' W 072°30'0 0.0 010 / 2 -1.2-4.0
2017-Nov-12 23:00N 46°18' W 072°30'0 0.0 350 / 1 -0.7-4.1
2017-Nov-12 22:00N 46°18' W 072°30'0 0.0 330 / 1 -0.5-4.3
2017-Nov-12 21:00N 46°18' W 072°30'0 0.0 130 / 2 -0.6-4.8
2017-Nov-12 20:00N 46°18' W 072°30'0 0.0 160 / 3 -0.7-4.4
2017-Nov-12 19:00N 46°18' W 072°30'0 0.0 100 / 4 -1.5-4.6
2017-Nov-12 18:00N 46°18' W 072°30'0 0.0 090 / 3 -2.8-4.9
2017-Nov-12 17:00N 46°18' W 072°30'0 0.0 050 / 1 -2.8-4.8
2017-Nov-12 16:00N 46°18' W 072°30'0 0.0 240 / 2 -1.8-8.8
2017-Nov-12 15:00N 46°18' W 072°30'0 0.0 -2.2-8.1
2017-Nov-12 14:00N 46°18' W 072°30'0 0.0 170 / 2 -3.1-8.1
2017-Nov-12 13:00N 46°18' W 072°30'0 0.0 160 / 2 -3.1-8.7
2017-Nov-12 12:00N 46°18' W 072°30'0 0.0 110 / 2 -3.6-8.3
2017-Nov-12 11:00N 46°18' W 072°30'0 0.0 170 / 2 -3.8-8.1
2017-Nov-12 10:00N 46°18' W 072°30'   150 / 4 -3.9-8.3

Dump ship's entire track history